createdAt,value
2023-08-01T00:00:05.464Z,1573.00
2023-08-01T00:01:05.601Z,1578.00
2023-08-01T00:02:05.540Z,1579.00
2023-08-01T00:03:05.516Z,1567.00
2023-08-01T00:04:05.533Z,1578.00
2023-08-01T00:05:05.456Z,1584.00
2023-08-01T00:06:05.434Z,1587.00
2023-08-01T00:07:05.469Z,1601.00
2023-08-01T00:08:05.439Z,1600.00
2023-08-01T00:09:05.498Z,1624.00
2023-08-01T00:10:05.455Z,1611.00
2023-08-01T00:11:05.429Z,1603.00
2023-08-01T00:12:05.811Z,1626.00
2023-08-01T00:13:05.435Z,1642.00
2023-08-01T00:14:05.393Z,1641.00
2023-08-01T00:15:05.422Z,1641.00
2023-08-01T00:16:07.967Z,1644.00
2023-08-01T00:17:05.407Z,1662.00
2023-08-01T00:18:05.450Z,1659.00
2023-08-01T00:19:05.377Z,1679.00
2023-08-01T00:20:05.398Z,1660.00
2023-08-01T00:21:05.358Z,1669.00
2023-08-01T00:22:05.428Z,1682.00
2023-08-01T00:23:05.411Z,1693.00
2023-08-01T00:24:05.368Z,1726.00
2023-08-01T00:25:05.412Z,1741.00
2023-08-01T00:26:05.390Z,1744.00
2023-08-01T00:27:05.369Z,1777.00
2023-08-01T00:28:05.425Z,1804.00
2023-08-01T00:29:05.306Z,1788.00
2023-08-01T00:30:05.365Z,1812.00
2023-08-01T00:31:05.317Z,1813.00
2023-08-01T00:32:05.322Z,1823.00
2023-08-01T00:33:05.267Z,1824.00
2023-08-01T00:34:05.274Z,1847.00
2023-08-01T00:35:05.263Z,1847.00
2023-08-01T00:36:05.235Z,1862.00
2023-08-01T00:37:05.251Z,1869.00
2023-08-01T00:38:05.227Z,1870.00
2023-08-01T00:39:05.231Z,1876.00
2023-08-01T00:40:05.261Z,1876.00
2023-08-01T00:41:05.219Z,1882.00
2023-08-01T00:42:05.192Z,1894.00
2023-08-01T00:43:05.301Z,1890.00
2023-08-01T00:44:05.182Z,1906.00
2023-08-01T00:45:05.200Z,1893.00
2023-08-01T00:46:05.204Z,1901.00
2023-08-01T00:47:05.191Z,1902.00
2023-08-01T00:48:05.203Z,1902.00
2023-08-01T00:49:05.162Z,1901.00
2023-08-01T00:50:05.199Z,1925.00
2023-08-01T00:51:05.169Z,1911.00
2023-08-01T00:52:05.345Z,1926.00
2023-08-01T00:53:05.135Z,1926.00
2023-08-01T00:54:05.110Z,1926.00
2023-08-01T00:55:05.133Z,1946.00
2023-08-01T00:56:05.114Z,1931.00
2023-08-01T00:57:05.122Z,1940.00
2023-08-01T00:58:05.141Z,1927.00
2023-08-01T00:59:05.103Z,1932.00
2023-08-01T01:00:05.083Z,1951.00
2023-08-01T01:01:05.106Z,1949.00
2023-08-01T01:02:05.120Z,1951.00
2023-08-01T01:03:05.178Z,1959.00
2023-08-01T01:04:05.049Z,1946.00
2023-08-01T01:05:05.062Z,1960.00
2023-08-01T01:06:05.044Z,1963.00
2023-08-01T01:07:05.049Z,1958.00
2023-08-01T01:08:05.339Z,1962.00
2023-08-01T01:09:05.043Z,1955.00
2023-08-01T01:10:05.029Z,1962.00
2023-08-01T01:11:05.024Z,1957.00
2023-08-01T01:12:04.988Z,1960.00
2023-08-01T01:13:05.028Z,1966.00
2023-08-01T01:14:05.030Z,1953.00
2023-08-01T01:15:04.977Z,1952.00
2023-08-01T01:16:04.967Z,1948.00
2023-08-01T01:17:05.052Z,1947.00
2023-08-01T01:18:04.966Z,1945.00
2023-08-01T01:19:04.982Z,1946.00
2023-08-01T01:20:04.937Z,1941.00
2023-08-01T01:21:04.948Z,1931.00
2023-08-01T01:22:04.971Z,1944.00
2023-08-01T01:23:04.954Z,1938.00
2023-08-01T01:24:04.935Z,1917.00
2023-08-01T01:25:04.957Z,1930.00
2023-08-01T01:26:04.917Z,1928.00
2023-08-01T01:27:04.920Z,1920.00
2023-08-01T01:28:04.961Z,1918.00
2023-08-01T01:29:04.908Z,1920.00
2023-08-01T01:30:04.881Z,1919.00
2023-08-01T01:31:04.955Z,1914.00
2023-08-01T01:32:04.899Z,1920.00
2023-08-01T01:33:04.964Z,1912.00
2023-08-01T01:34:04.862Z,1911.00
2023-08-01T01:35:04.852Z,1915.00
2023-08-01T01:36:04.851Z,1902.00
2023-08-01T01:37:04.850Z,1897.00
2023-08-01T01:38:04.836Z,1890.00
2023-08-01T01:39:04.839Z,1887.00
2023-08-01T01:40:04.842Z,1881.00
2023-08-01T01:41:04.830Z,1892.00
2023-08-01T01:42:04.806Z,1903.00
2023-08-01T01:43:04.806Z,1896.00
2023-08-01T01:44:04.817Z,1901.00
2023-08-01T01:45:04.791Z,1893.00
2023-08-01T01:46:04.878Z,1888.00
2023-08-01T01:47:04.794Z,1895.00
2023-08-01T01:48:04.809Z,1900.00
2023-08-01T01:49:04.776Z,1899.00
2023-08-01T01:50:04.776Z,1900.00
2023-08-01T01:51:04.783Z,1898.00
2023-08-01T01:52:04.751Z,1885.00
2023-08-01T01:53:04.773Z,1891.00
2023-08-01T01:54:04.747Z,1883.00
2023-08-01T01:55:04.748Z,1898.00
2023-08-01T01:56:04.758Z,1882.00
2023-08-01T01:57:04.806Z,1895.00
2023-08-01T01:58:04.832Z,1884.00
2023-08-01T01:59:04.832Z,1897.00
2023-08-01T02:00:04.890Z,1911.00
2023-08-01T02:01:04.925Z,1895.00
2023-08-01T02:02:04.938Z,1893.00
2023-08-01T02:03:04.934Z,1891.00
2023-08-01T02:04:04.955Z,1894.00
2023-08-01T02:05:05.047Z,1887.00
2023-08-01T02:06:04.991Z,1897.00
2023-08-01T02:07:05.006Z,1888.00
2023-08-01T02:08:05.046Z,1898.00
2023-08-01T02:09:05.109Z,1888.00
2023-08-01T02:10:05.069Z,1894.00
2023-08-01T02:11:05.105Z,1890.00
2023-08-01T02:12:05.136Z,1891.00
2023-08-01T02:13:05.139Z,1871.00
2023-08-01T02:14:05.172Z,1880.00
2023-08-01T02:15:05.206Z,1874.00
2023-08-01T02:16:05.347Z,1875.00
2023-08-01T02:17:05.249Z,1878.00
2023-08-01T02:18:05.299Z,1872.00
2023-08-01T02:19:05.268Z,1877.00
2023-08-01T02:20:05.321Z,1875.00
2023-08-01T02:21:05.334Z,1870.00
2023-08-01T02:22:05.345Z,1857.00
2023-08-01T02:23:05.371Z,1869.00
2023-08-01T02:24:05.400Z,1865.00
2023-08-01T02:25:05.411Z,1870.00
2023-08-01T02:26:05.500Z,1867.00
2023-08-01T02:27:05.507Z,1877.00
2023-08-01T02:28:05.590Z,1878.00
2023-08-01T02:29:05.506Z,1872.00
2023-08-01T02:30:05.546Z,1869.00
2023-08-01T02:31:05.585Z,1870.00
2023-08-01T02:32:05.651Z,1876.00
2023-08-01T02:33:05.700Z,1855.00
2023-08-01T02:34:05.637Z,1862.00
2023-08-01T02:35:05.655Z,1846.00
2023-08-01T02:36:05.679Z,1842.00
2023-08-01T02:37:05.718Z,1857.00
2023-08-01T02:38:05.807Z,1847.00
2023-08-01T02:39:05.832Z,1858.00
2023-08-01T02:40:05.791Z,1844.00
2023-08-01T02:41:05.847Z,1854.00
2023-08-01T02:42:05.957Z,1846.00
2023-08-01T02:43:05.907Z,1866.00
2023-08-01T02:44:05.941Z,1862.00
2023-08-01T02:45:06.895Z,1853.00
2023-08-01T02:46:06.015Z,1856.00
2023-08-01T02:47:05.999Z,1849.00
2023-08-01T02:48:06.107Z,1838.00
2023-08-01T02:49:06.060Z,1857.00
2023-08-01T02:50:06.080Z,1854.00
2023-08-01T02:51:06.122Z,1839.00
2023-08-01T02:52:06.155Z,1847.00
2023-08-01T02:53:06.177Z,1820.00
2023-08-01T02:54:06.209Z,1833.00
2023-08-01T02:55:06.234Z,1820.00
2023-08-01T02:56:06.258Z,1821.00
2023-08-01T02:57:06.307Z,1825.00
2023-08-01T02:58:06.330Z,1816.00
2023-08-01T02:59:06.353Z,1808.00
2023-08-01T03:00:06.392Z,1820.00
2023-08-01T03:01:06.435Z,1817.00
2023-08-01T03:02:06.431Z,1816.00
2023-08-01T03:03:06.489Z,1816.00
2023-08-01T03:04:06.482Z,1819.00
2023-08-01T03:05:06.511Z,1806.00
2023-08-01T03:06:06.542Z,1811.00
2023-08-01T03:07:06.595Z,1831.00
2023-08-01T03:08:06.585Z,1831.00
2023-08-01T03:09:06.634Z,1822.00
2023-08-01T03:10:06.641Z,1834.00
2023-08-01T03:11:06.704Z,1848.00
2023-08-01T03:12:06.737Z,1842.00
2023-08-01T03:13:06.748Z,1832.00
2023-08-01T03:14:06.778Z,1843.00
2023-08-01T03:15:06.812Z,1854.00
2023-08-01T03:16:06.880Z,1850.00
2023-08-01T03:17:06.880Z,1842.00
2023-08-01T03:18:06.925Z,1862.00
2023-08-01T03:19:06.915Z,1840.00
2023-08-01T03:20:06.946Z,1844.00
2023-08-01T03:21:07.002Z,1847.00
2023-08-01T03:22:06.995Z,1818.00
2023-08-01T03:23:07.030Z,1835.00
2023-08-01T03:24:07.081Z,1812.00
2023-08-01T03:25:07.075Z,1846.00
2023-08-01T03:26:07.129Z,1834.00
2023-08-01T03:27:07.141Z,1819.00
2023-08-01T03:28:07.210Z,1818.00
2023-08-01T03:29:07.253Z,1819.00
2023-08-01T03:30:07.246Z,1810.00
2023-08-01T03:31:07.267Z,1820.00
2023-08-01T03:32:07.393Z,1814.00
2023-08-01T03:33:07.365Z,1817.00
2023-08-01T03:34:07.414Z,1807.00
2023-08-01T03:35:07.397Z,1812.00
2023-08-01T03:36:07.417Z,1815.00
2023-08-01T03:37:07.484Z,1819.00
2023-08-01T03:38:07.505Z,1832.00
2023-08-01T03:39:07.550Z,1833.00
2023-08-01T03:40:07.573Z,1842.00
2023-08-01T03:41:07.611Z,1842.00
2023-08-01T03:42:07.653Z,1835.00
2023-08-01T03:43:07.706Z,1842.00
2023-08-01T03:44:07.716Z,1845.00
2023-08-01T03:45:07.760Z,1848.00
2023-08-01T03:46:07.825Z,1844.00
2023-08-01T03:47:07.853Z,1849.00
2023-08-01T03:48:07.918Z,1853.00
2023-08-01T03:49:07.887Z,1845.00
2023-08-01T03:50:07.965Z,1837.00
2023-08-01T03:51:07.981Z,1849.00
2023-08-01T03:52:08.003Z,1850.00
2023-08-01T03:53:08.057Z,1836.00
2023-08-01T03:54:14.053Z,1832.00
2023-08-01T03:55:09.083Z,1833.00
2023-08-01T03:56:08.062Z,1836.00
2023-08-01T03:57:08.061Z,1843.00
2023-08-01T03:58:08.061Z,1846.00
2023-08-01T03:59:08.047Z,1856.00
2023-08-01T04:00:08.043Z,1880.00
2023-08-01T04:01:08.060Z,1870.00
2023-08-01T04:02:08.039Z,1860.00
2023-08-01T04:03:08.078Z,1857.00
2023-08-01T04:04:08.089Z,1867.00
2023-08-01T04:05:08.007Z,1861.00
2023-08-01T04:06:08.006Z,1851.00
2023-08-01T04:07:07.993Z,1857.00
2023-08-01T04:08:08.031Z,1859.00
2023-08-01T04:09:08.061Z,1851.00
2023-08-01T04:10:08.102Z,1853.00
2023-08-01T04:11:08.130Z,1860.00
2023-08-01T04:12:08.169Z,1868.00
2023-08-01T04:13:08.202Z,1841.00
2023-08-01T04:14:08.249Z,1853.00
2023-08-01T04:15:08.277Z,1859.00
2023-08-01T04:16:08.346Z,1857.00
2023-08-01T04:17:08.369Z,1855.00
2023-08-01T04:18:08.466Z,1853.00
2023-08-01T04:19:08.434Z,1844.00
2023-08-01T04:20:08.482Z,1863.00
2023-08-01T04:21:08.500Z,1839.00
2023-08-01T04:22:08.547Z,1857.00
2023-08-01T04:23:08.567Z,1849.00
2023-08-01T04:24:08.597Z,1846.00
2023-08-01T04:25:08.634Z,1831.00
2023-08-01T04:26:08.692Z,1853.00
2023-08-01T04:27:08.724Z,1859.00
2023-08-01T04:28:08.818Z,1850.00
2023-08-01T04:29:08.901Z,1849.00
2023-08-01T04:30:08.869Z,1852.00
2023-08-01T04:31:08.920Z,1845.00
2023-08-01T04:32:08.946Z,1845.00
2023-08-01T04:33:09.038Z,1853.00
2023-08-01T04:34:09.000Z,1848.00
2023-08-01T04:35:09.061Z,1853.00
2023-08-01T04:36:09.102Z,1847.00
2023-08-01T04:37:09.154Z,1846.00
2023-08-01T04:38:09.172Z,1856.00
2023-08-01T04:39:09.195Z,1847.00
2023-08-01T04:40:09.291Z,1842.00
2023-08-01T04:41:09.296Z,1848.00
2023-08-01T04:42:09.348Z,1858.00
2023-08-01T04:43:09.390Z,1856.00
2023-08-01T04:44:09.437Z,1842.00
2023-08-01T04:45:09.473Z,1854.00
2023-08-01T04:46:10.710Z,1862.00
2023-08-01T04:47:09.598Z,1854.00
2023-08-01T04:48:09.581Z,1857.00
2023-08-01T04:49:09.635Z,1853.00
2023-08-01T04:50:09.696Z,1847.00
2023-08-01T04:51:09.723Z,1848.00
2023-08-01T04:52:09.783Z,1850.00
2023-08-01T04:53:09.801Z,1842.00
2023-08-01T04:54:09.836Z,1861.00
2023-08-01T04:55:09.898Z,1861.00
2023-08-01T04:56:09.933Z,1849.00
2023-08-01T04:57:09.962Z,1853.00
2023-08-01T04:58:11.540Z,1859.00
2023-08-01T04:59:10.111Z,1863.00
2023-08-01T05:00:10.086Z,1852.00
2023-08-01T05:01:10.244Z,1852.00
2023-08-01T05:02:10.181Z,1862.00
2023-08-01T05:03:10.361Z,1862.00
2023-08-01T05:04:10.266Z,1866.00
2023-08-01T05:05:10.335Z,1870.00
2023-08-01T05:06:10.405Z,1861.00
2023-08-01T05:07:10.435Z,1859.00
2023-08-01T05:08:10.469Z,1871.00
2023-08-01T05:09:10.512Z,1862.00
2023-08-01T05:10:10.574Z,1858.00
2023-08-01T05:11:11.439Z,1866.00
2023-08-01T05:12:10.657Z,1863.00
2023-08-01T05:13:10.722Z,1875.00
2023-08-01T05:14:10.760Z,1857.00
2023-08-01T05:15:10.861Z,1875.00
2023-08-01T05:16:10.863Z,1887.00
2023-08-01T05:17:10.916Z,1886.00
2023-08-01T05:18:10.945Z,1861.00
2023-08-01T05:19:11.009Z,1877.00
2023-08-01T05:20:11.041Z,1878.00
2023-08-01T05:21:11.103Z,1878.00
2023-08-01T05:22:11.122Z,1877.00
2023-08-01T05:23:11.189Z,1890.00
2023-08-01T05:24:11.214Z,1884.00
2023-08-01T05:25:11.282Z,1881.00
2023-08-01T05:26:11.310Z,1871.00
2023-08-01T05:27:11.379Z,1873.00
2023-08-01T05:28:11.411Z,1868.00
2023-08-01T05:29:11.454Z,1865.00
2023-08-01T05:30:11.479Z,1859.00
2023-08-01T05:31:11.558Z,1874.00
2023-08-01T05:32:11.562Z,1879.00
2023-08-01T05:33:11.686Z,1875.00
2023-08-01T05:34:11.655Z,1868.00
2023-08-01T05:35:11.677Z,1883.00
2023-08-01T05:36:11.732Z,1868.00
2023-08-01T05:37:11.815Z,1870.00
2023-08-01T05:38:11.830Z,1853.00
2023-08-01T05:39:11.894Z,1856.00
2023-08-01T05:40:11.968Z,1839.00
2023-08-01T05:41:11.981Z,1840.00
2023-08-01T05:42:12.021Z,1853.00
2023-08-01T05:43:12.073Z,1851.00
2023-08-01T05:44:12.161Z,1852.00
2023-08-01T05:45:12.204Z,1847.00
2023-08-01T05:46:12.247Z,1842.00
2023-08-01T05:47:12.308Z,1849.00
2023-08-01T05:48:12.332Z,1846.00
2023-08-01T05:49:12.385Z,1849.00
2023-08-01T05:50:12.417Z,1853.00
2023-08-01T05:51:14.474Z,1855.00
2023-08-01T05:52:12.483Z,1864.00
2023-08-01T05:53:12.470Z,1861.00
2023-08-01T05:54:12.458Z,1861.00
2023-08-01T05:55:12.448Z,1879.00
2023-08-01T05:56:12.490Z,1883.00
2023-08-01T05:57:12.518Z,1890.00
2023-08-01T05:58:12.431Z,1891.00
2023-08-01T05:59:12.438Z,1886.00
2023-08-01T06:00:12.437Z,1890.00
2023-08-01T06:01:12.449Z,1895.00
2023-08-01T06:02:12.430Z,1903.00
2023-08-01T06:04:12.504Z,1911.00
2023-08-01T06:05:12.392Z,1919.00
2023-08-01T06:06:12.390Z,1921.00
2023-08-01T06:07:12.379Z,1928.00
2023-08-01T06:08:12.358Z,1923.00
2023-08-01T06:09:12.377Z,1918.00
2023-08-01T06:10:12.421Z,1911.00
2023-08-01T06:11:12.366Z,1897.00
2023-08-01T06:12:12.335Z,1895.00
2023-08-01T06:13:12.322Z,1893.00
2023-08-01T06:14:12.356Z,1884.00
2023-08-01T06:15:12.312Z,1878.00
2023-08-01T06:16:12.360Z,1847.00
2023-08-01T06:17:12.314Z,1843.00
2023-08-01T06:18:12.283Z,1843.00
2023-08-01T06:19:12.302Z,1837.00
2023-08-01T06:20:12.299Z,1843.00
2023-08-01T06:21:12.284Z,1835.00
2023-08-01T06:22:12.274Z,1841.00
2023-08-01T06:23:12.282Z,1818.00
2023-08-01T06:24:12.263Z,1830.00
2023-08-01T06:25:12.260Z,1843.00
2023-08-01T06:26:12.242Z,1855.00
2023-08-01T06:27:12.254Z,1866.00
2023-08-01T06:28:12.256Z,1853.00
2023-08-01T06:29:12.244Z,1864.00
2023-08-01T06:30:12.297Z,1875.00
2023-08-01T06:31:12.318Z,1876.00
2023-08-01T06:32:12.456Z,1891.00
2023-08-01T06:33:12.511Z,1884.00
2023-08-01T06:34:12.508Z,1902.00
2023-08-01T06:35:12.541Z,1892.00
2023-08-01T06:36:13.293Z,1901.00
2023-08-01T06:37:12.653Z,1913.00
2023-08-01T06:38:12.677Z,1901.00
2023-08-01T06:39:12.710Z,1920.00
2023-08-01T06:40:12.775Z,1914.00
2023-08-01T06:41:12.821Z,1917.00
2023-08-01T06:42:12.855Z,1930.00
2023-08-01T06:43:12.911Z,1925.00
2023-08-01T06:44:12.963Z,1930.00
2023-08-01T06:45:13.008Z,1921.00
2023-08-01T06:46:13.094Z,1918.00
2023-08-01T06:47:13.109Z,1905.00
2023-08-01T06:48:13.136Z,1910.00
2023-08-01T06:49:13.211Z,1894.00
2023-08-01T06:50:13.250Z,1911.00
2023-08-01T06:51:13.284Z,1891.00
2023-08-01T06:52:13.350Z,1891.00
2023-08-01T06:53:13.417Z,1894.00
2023-08-01T06:54:13.458Z,1883.00
2023-08-01T06:55:13.514Z,1861.00
2023-08-01T06:56:13.585Z,1862.00
2023-08-01T06:57:13.620Z,1857.00
2023-08-01T06:58:13.652Z,1848.00
2023-08-01T06:59:13.707Z,1842.00
2023-08-01T07:00:13.773Z,1829.00
2023-08-01T07:01:13.848Z,1827.00
2023-08-01T07:02:13.867Z,1815.00
2023-08-01T07:03:13.997Z,1822.00
2023-08-01T07:04:13.975Z,1808.00
2023-08-01T07:05:14.035Z,1810.00
2023-08-01T07:06:14.134Z,1811.00
2023-08-01T07:07:14.169Z,1816.00
2023-08-01T07:08:14.193Z,1792.00
2023-08-01T07:09:14.249Z,1807.00
2023-08-01T07:10:14.307Z,1791.00
2023-08-01T07:11:14.330Z,1791.00
2023-08-01T07:12:14.419Z,1789.00
2023-08-01T07:13:14.452Z,1783.00
2023-08-01T07:14:14.501Z,1771.00
2023-08-01T07:15:14.581Z,1791.00
2023-08-01T07:16:14.642Z,1785.00
2023-08-01T07:17:14.665Z,1788.00
2023-08-01T07:18:14.731Z,1797.00
2023-08-01T07:19:14.766Z,1790.00
2023-08-01T07:20:14.813Z,1776.00
2023-08-01T07:21:14.884Z,1788.00
2023-08-01T07:22:14.940Z,1776.00
2023-08-01T07:23:14.985Z,1778.00
2023-08-01T07:24:15.024Z,1779.00
2023-08-01T07:25:15.080Z,1775.00
2023-08-01T07:26:15.187Z,1769.00
2023-08-01T07:27:15.216Z,1772.00
2023-08-01T07:28:15.306Z,1782.00
2023-08-01T07:29:15.289Z,1778.00
2023-08-01T07:30:15.359Z,1781.00
2023-08-01T07:31:15.459Z,1776.00
2023-08-01T07:32:15.452Z,1777.00
2023-08-01T07:33:15.522Z,1786.00
2023-08-01T07:34:15.572Z,1776.00
2023-08-01T07:35:15.713Z,1793.00
2023-08-01T07:36:15.721Z,1771.00
2023-08-01T07:37:15.712Z,1774.00
2023-08-01T07:38:15.810Z,1770.00
2023-08-01T07:39:15.823Z,1786.00
2023-08-01T07:40:15.885Z,1799.00
2023-08-01T07:41:15.930Z,1796.00
2023-08-01T07:42:15.988Z,1797.00
2023-08-01T07:43:16.031Z,1801.00
2023-08-01T07:44:16.063Z,1792.00
2023-08-01T07:45:16.115Z,1798.00
2023-08-01T07:46:16.205Z,1794.00
2023-08-01T07:47:16.205Z,1792.00
2023-08-01T07:48:16.253Z,1786.00
2023-08-01T07:49:16.286Z,1782.00
2023-08-01T07:50:16.361Z,1776.00
2023-08-01T07:51:16.419Z,1768.00
2023-08-01T07:52:16.455Z,1769.00
2023-08-01T07:53:16.505Z,1770.00
2023-08-01T07:54:16.598Z,1786.00
2023-08-01T07:55:16.618Z,1764.00
2023-08-01T07:56:16.666Z,1766.00
2023-08-01T07:57:16.745Z,1753.00
2023-08-01T07:58:16.776Z,1745.00
2023-08-01T07:59:16.840Z,1736.00
2023-08-01T08:00:16.838Z,1718.00
2023-08-01T08:01:16.904Z,1711.00
2023-08-01T08:02:16.961Z,1709.00
2023-08-01T08:03:17.052Z,1703.00
2023-08-01T08:04:17.053Z,1710.00
2023-08-01T08:05:17.092Z,1709.00
2023-08-01T08:06:17.158Z,1686.00
2023-08-01T08:07:17.166Z,1694.00
2023-08-01T08:08:17.232Z,1696.00
2023-08-01T08:09:17.228Z,1668.00
2023-08-01T08:10:17.292Z,1653.00
2023-08-01T08:11:17.320Z,1656.00
2023-08-01T08:12:17.361Z,1656.00
2023-08-01T08:13:17.420Z,1640.00
2023-08-01T08:14:17.434Z,1623.00
2023-08-01T08:15:17.495Z,1626.00
2023-08-01T08:16:17.570Z,1632.00
2023-08-01T08:17:17.607Z,1629.00
2023-08-01T08:18:20.326Z,1639.00
2023-08-01T08:19:17.618Z,1668.00
2023-08-01T08:20:17.593Z,1666.00
2023-08-01T08:21:17.618Z,1672.00
2023-08-01T08:22:17.561Z,1677.00
2023-08-01T08:23:17.566Z,1675.00
2023-08-01T08:24:17.589Z,1681.00
2023-08-01T08:25:17.539Z,1686.00
2023-08-01T08:26:17.539Z,1685.00
2023-08-01T08:27:17.527Z,1687.00
2023-08-01T08:28:17.550Z,1686.00
2023-08-01T08:29:17.522Z,1692.00
2023-08-01T08:30:17.531Z,1682.00
2023-08-01T08:31:17.552Z,1691.00
2023-08-01T08:32:17.488Z,1693.00
2023-08-01T08:33:17.486Z,1698.00
2023-08-01T08:34:17.497Z,1697.00
2023-08-01T08:35:17.490Z,1684.00
2023-08-01T08:36:17.492Z,1693.00
2023-08-01T08:37:17.491Z,1688.00
2023-08-01T08:38:17.473Z,1673.00
2023-08-01T08:39:17.464Z,1672.00
2023-08-01T08:40:17.461Z,1676.00
2023-08-01T08:41:17.444Z,1668.00
2023-08-01T08:42:17.452Z,1673.00
2023-08-01T08:43:17.422Z,1667.00
2023-08-01T08:44:17.420Z,1650.00
2023-08-01T08:45:17.424Z,1669.00
2023-08-01T08:46:17.460Z,1674.00
2023-08-01T08:47:17.404Z,1687.00
2023-08-01T08:48:17.380Z,1684.00
2023-08-01T08:49:17.422Z,1689.00
2023-08-01T08:50:17.376Z,1694.00
2023-08-01T08:51:17.370Z,1680.00
2023-08-01T08:52:17.379Z,1686.00
2023-08-01T08:53:17.368Z,1685.00
2023-08-01T08:54:17.363Z,1692.00
2023-08-01T08:55:17.345Z,1683.00
2023-08-01T08:56:17.352Z,1682.00
2023-08-01T08:57:17.337Z,1679.00
2023-08-01T08:58:17.331Z,1669.00
2023-08-01T08:59:17.337Z,1674.00
2023-08-01T09:00:19.099Z,1681.00
2023-08-01T09:01:17.353Z,1693.00
2023-08-01T09:02:17.437Z,1683.00
2023-08-01T09:03:17.369Z,1689.00
2023-08-01T09:04:17.290Z,1682.00
2023-08-01T09:05:17.318Z,1685.00
2023-08-01T09:06:17.256Z,1670.00
2023-08-01T09:07:17.256Z,1682.00
2023-08-01T09:08:17.256Z,1682.00
2023-08-01T09:09:17.286Z,1671.00
2023-08-01T09:10:17.286Z,1673.00
2023-08-01T09:11:17.249Z,1670.00
2023-08-01T09:12:17.319Z,1666.00
2023-08-01T09:13:17.227Z,1650.00
2023-08-01T09:14:17.227Z,1673.00
2023-08-01T09:15:17.206Z,1662.00
2023-08-01T09:16:17.234Z,1653.00
2023-08-01T09:17:17.207Z,1655.00
2023-08-01T09:18:17.215Z,1655.00
2023-08-01T09:19:17.219Z,1648.00
2023-08-01T09:20:17.185Z,1652.00
2023-08-01T09:21:17.172Z,1652.00
2023-08-01T09:22:17.171Z,1640.00
2023-08-01T09:23:17.190Z,1621.00
2023-08-01T09:24:17.153Z,1638.00
2023-08-01T09:25:17.155Z,1614.00
2023-08-01T09:26:17.167Z,1608.00
2023-08-01T09:27:17.168Z,1615.00
2023-08-01T09:28:17.189Z,1626.00
2023-08-01T09:29:17.126Z,1627.00
2023-08-01T09:30:17.409Z,1609.00
2023-08-01T09:31:17.172Z,1613.00
2023-08-01T09:32:17.136Z,1611.00
2023-08-01T09:33:17.095Z,1595.00
2023-08-01T09:34:17.088Z,1594.00
2023-08-01T09:35:17.140Z,1579.00
2023-08-01T09:36:17.103Z,1590.00
2023-08-01T09:37:17.091Z,1575.00
2023-08-01T09:38:17.067Z,1581.00
2023-08-01T09:39:17.047Z,1584.00
2023-08-01T09:40:17.098Z,1593.00
2023-08-01T09:41:17.065Z,1594.00
2023-08-01T09:42:17.055Z,1585.00
2023-08-01T09:43:17.022Z,1581.00
2023-08-01T09:44:17.044Z,1596.00
2023-08-01T09:45:17.052Z,1594.00
2023-08-01T09:46:17.065Z,1586.00
2023-08-01T09:47:17.023Z,1603.00
2023-08-01T09:48:17.117Z,1609.00
2023-08-01T09:49:16.990Z,1602.00
2023-08-01T09:50:16.993Z,1603.00
2023-08-01T09:51:17.006Z,1594.00
2023-08-01T09:52:16.977Z,1596.00
2023-08-01T09:53:16.983Z,1585.00
2023-08-01T09:54:17.001Z,1575.00
2023-08-01T09:55:16.966Z,1574.00
2023-08-01T09:56:16.953Z,1563.00
2023-08-01T09:57:16.936Z,1574.00
2023-08-01T09:58:16.937Z,1565.00
2023-08-01T09:59:16.934Z,1568.00
2023-08-01T10:00:16.934Z,1559.00
2023-08-01T10:01:16.909Z,1554.00
2023-08-01T10:02:16.909Z,1553.00
2023-08-01T10:03:17.013Z,1550.00
2023-08-01T10:04:16.904Z,1539.00
2023-08-01T10:05:16.945Z,1530.00
2023-08-01T10:06:16.893Z,1542.00
2023-08-01T10:07:16.885Z,1518.00
2023-08-01T10:08:16.907Z,1511.00
2023-08-01T10:09:16.902Z,1505.00
2023-08-01T10:10:16.884Z,1517.00
2023-08-01T10:11:16.856Z,1530.00
2023-08-01T10:12:16.879Z,1532.00
2023-08-01T10:13:16.864Z,1520.00
2023-08-01T10:14:16.856Z,1539.00
2023-08-01T10:15:16.880Z,1519.00
2023-08-01T10:16:16.860Z,1504.00
2023-08-01T10:17:16.858Z,1527.00
2023-08-01T10:18:16.844Z,1510.00
2023-08-01T10:19:16.853Z,1492.00
2023-08-01T10:20:16.813Z,1500.00
2023-08-01T10:21:16.827Z,1507.00
2023-08-01T10:22:16.818Z,1487.00
2023-08-01T10:23:16.800Z,1488.00
2023-08-01T10:24:16.847Z,1493.00
2023-08-01T10:25:16.880Z,1512.00
2023-08-01T10:26:16.929Z,1499.00
2023-08-01T10:27:16.885Z,1511.00
2023-08-01T10:28:16.969Z,1501.00
2023-08-01T10:29:16.912Z,1502.00
2023-08-01T10:30:16.920Z,1511.00
2023-08-01T10:31:17.015Z,1516.00
2023-08-01T10:32:16.988Z,1492.00
2023-08-01T10:33:16.998Z,1485.00
2023-08-01T10:34:17.594Z,1468.00
2023-08-01T10:35:17.074Z,1449.00
2023-08-01T10:36:17.053Z,1452.00
2023-08-01T10:37:17.065Z,1437.00
2023-08-01T10:38:17.101Z,1436.00
2023-08-01T10:39:17.103Z,1428.00
2023-08-01T10:40:17.341Z,1416.00
2023-08-01T10:41:17.166Z,1412.00
2023-08-01T10:42:17.196Z,1407.00
2023-08-01T10:43:17.180Z,1383.00
2023-08-01T10:44:17.237Z,1399.00
2023-08-01T10:45:17.238Z,1372.00
2023-08-01T10:46:17.292Z,1352.00
2023-08-01T10:47:17.287Z,1347.00
2023-08-01T10:48:17.299Z,1340.00
2023-08-01T10:49:17.318Z,1353.00
2023-08-01T10:50:17.314Z,1348.00
2023-08-01T10:51:17.342Z,1349.00
2023-08-01T10:52:17.403Z,1341.00
2023-08-01T10:53:17.379Z,1321.00
2023-08-01T10:54:17.411Z,1316.00
2023-08-01T10:55:17.424Z,1316.00
2023-08-01T10:56:17.575Z,1323.00
2023-08-01T10:57:17.458Z,1321.00
2023-08-01T10:58:17.506Z,1328.00
2023-08-01T10:59:17.528Z,1343.00
2023-08-01T11:00:18.357Z,1341.00
2023-08-01T11:01:17.591Z,1345.00
2023-08-01T11:02:17.594Z,1348.00
2023-08-01T11:03:17.643Z,1327.00
2023-08-01T11:04:17.600Z,1323.00
2023-08-01T11:05:17.600Z,1337.00
2023-08-01T11:06:17.635Z,1321.00
2023-08-01T11:07:17.623Z,1337.00
2023-08-01T11:08:17.651Z,1336.00
2023-08-01T11:09:17.664Z,1328.00
2023-08-01T11:10:17.690Z,1328.00
2023-08-01T11:11:17.741Z,1322.00
2023-08-01T11:12:17.714Z,1337.00
2023-08-01T11:13:17.755Z,1342.00
2023-08-01T11:14:17.733Z,1335.00
2023-08-01T11:15:17.750Z,1349.00
2023-08-01T11:16:17.790Z,1338.00
2023-08-01T11:17:17.778Z,1339.00
2023-08-01T11:18:17.794Z,1334.00
2023-08-01T11:19:17.787Z,1337.00
2023-08-01T11:20:17.814Z,1340.00
2023-08-01T11:21:17.824Z,1363.00
2023-08-01T11:22:17.814Z,1362.00
2023-08-01T11:23:17.822Z,1336.00
2023-08-01T11:24:17.835Z,1341.00
2023-08-01T11:25:17.820Z,1348.00
2023-08-01T11:26:17.825Z,1331.00
2023-08-01T11:27:17.843Z,1323.00
2023-08-01T11:28:17.895Z,1328.00
2023-08-01T11:29:17.863Z,1335.00
2023-08-01T11:30:17.844Z,1351.00
2023-08-01T11:31:17.902Z,1354.00
2023-08-01T11:32:17.865Z,1361.00
2023-08-01T11:33:17.860Z,1339.00
2023-08-01T11:34:17.873Z,1348.00
2023-08-01T11:35:17.891Z,1345.00
2023-08-01T11:36:17.861Z,1347.00
2023-08-01T11:37:17.886Z,1354.00
2023-08-01T11:38:17.873Z,1349.00
2023-08-01T11:39:17.869Z,1317.00
2023-08-01T11:40:17.865Z,1319.00
2023-08-01T11:41:17.951Z,1310.00
2023-08-01T11:42:17.880Z,1320.00
2023-08-01T11:43:17.908Z,1318.00
2023-08-01T11:44:17.937Z,1312.00
2023-08-01T11:45:17.897Z,1340.00
2023-08-01T11:46:17.934Z,1389.00
2023-08-01T11:47:17.928Z,1419.00
2023-08-01T11:48:17.890Z,1457.00
2023-08-01T11:49:17.913Z,1477.00
2023-08-01T11:50:17.879Z,1492.00
2023-08-01T11:51:17.892Z,1542.00
2023-08-01T11:52:17.918Z,1539.00
2023-08-01T11:53:17.879Z,1568.00
2023-08-01T11:54:17.928Z,1590.00
2023-08-01T11:55:17.914Z,1621.00
2023-08-01T11:56:17.933Z,1651.00
2023-08-01T11:57:17.954Z,1633.00
2023-08-01T11:58:18.037Z,1608.00
2023-08-01T11:59:17.944Z,1617.00
2023-08-01T12:00:17.959Z,1622.00
2023-08-01T12:01:18.007Z,1616.00
2023-08-01T12:02:17.952Z,1585.00
2023-08-01T12:03:17.988Z,1615.00
2023-08-01T12:04:17.983Z,1610.00
2023-08-01T12:05:17.992Z,1593.00
2023-08-01T12:06:17.977Z,1566.00